createdAt,value
2023-05-22T00:02:45.166Z,22.6
2023-05-22T00:07:46.990Z,22.6
2023-05-22T00:12:48.703Z,22.6
2023-05-22T00:17:50.380Z,22.6
2023-05-22T00:22:52.027Z,22.7
2023-05-22T00:27:53.667Z,22.7
2023-05-22T00:32:55.477Z,22.8
2023-05-22T00:37:57.368Z,22.8
2023-05-22T00:42:59.059Z,22.8
2023-05-22T00:48:00.882Z,22.8
2023-05-22T00:53:01.749Z,22.9
2023-05-22T00:58:03.474Z,22.9
2023-05-22T01:03:05.254Z,22.9
2023-05-22T01:08:06.977Z,22.9
2023-05-22T01:13:08.641Z,22.9
2023-05-22T01:18:10.371Z,23
2023-05-22T01:23:12.209Z,23.1
2023-05-22T01:28:13.838Z,23.1
2023-05-22T01:33:15.548Z,23.1
2023-05-22T01:38:17.430Z,23.1
2023-05-22T01:43:19.128Z,23.1
2023-05-22T01:48:20.795Z,23.1
2023-05-22T01:53:22.477Z,23.2
2023-05-22T01:58:24.121Z,23.2
2023-05-22T02:03:25.882Z,23.3
2023-05-22T02:08:27.695Z,23.3
2023-05-22T02:13:29.394Z,23.3
2023-05-22T02:18:31.083Z,23.3
2023-05-22T02:23:32.828Z,23.3
2023-05-22T02:28:34.518Z,23.4
2023-05-22T02:33:36.225Z,23.4
2023-05-22T02:38:37.936Z,23.4
2023-05-22T02:43:39.570Z,23.4
2023-05-22T02:48:41.260Z,23.4
2023-05-22T02:53:42.978Z,23.4
2023-05-22T02:58:44.660Z,23.5
2023-05-22T03:03:46.371Z,23.5
2023-05-22T03:08:48.156Z,23.5
2023-05-22T03:13:49.841Z,23.6
2023-05-22T03:18:51.511Z,23.6
2023-05-22T03:23:53.238Z,23.6
2023-05-22T03:28:54.951Z,23.6
2023-05-22T03:33:56.756Z,23.6
2023-05-22T03:38:58.480Z,23.6
2023-05-22T03:44:00.253Z,23.6
2023-05-22T03:49:01.990Z,23.7
2023-05-22T03:54:03.734Z,23.7
2023-05-22T03:59:05.406Z,23.7
2023-05-22T04:04:07.103Z,23.7
2023-05-22T04:09:08.250Z,23.7
2023-05-22T04:14:09.984Z,23.8
2023-05-22T04:19:11.735Z,23.8
2023-05-22T04:24:13.830Z,23.8
2023-05-22T04:29:15.480Z,23.8
2023-05-22T04:34:17.190Z,23.9
2023-05-22T04:39:18.996Z,23.9
2023-05-22T04:44:20.769Z,23.9
2023-05-22T04:49:22.642Z,23.9
2023-05-22T04:54:24.500Z,23.9
2023-05-22T04:59:26.428Z,23.9
2023-05-22T05:04:28.157Z,23.9
2023-05-22T05:09:29.857Z,23.9
2023-05-22T05:14:31.568Z,24
2023-05-22T05:19:35.416Z,24
2023-05-22T05:24:38.631Z,24
2023-05-22T05:29:40.515Z,24
2023-05-22T05:34:42.334Z,24.1
2023-05-22T05:39:44.081Z,24.1
2023-05-22T05:44:45.801Z,24.1
2023-05-22T05:49:47.485Z,24.1
2023-05-22T05:54:49.188Z,24.1
2023-05-22T05:59:50.928Z,24.1
2023-05-22T06:04:52.785Z,24.1
2023-05-22T06:09:54.554Z,24.1
2023-05-22T06:14:56.268Z,24.2
2023-05-22T06:19:57.995Z,24.2
2023-05-22T06:24:59.831Z,24.2
2023-05-22T06:30:01.624Z,24.2
2023-05-22T06:35:03.544Z,24.1
2023-05-22T06:40:05.229Z,24.1
2023-05-22T06:45:07.076Z,24.1
2023-05-22T06:50:08.797Z,24.1
2023-05-22T06:55:13.230Z,24.1
2023-05-22T07:00:14.929Z,24.1
2023-05-22T07:05:16.814Z,24.1
2023-05-22T07:10:18.735Z,24.1
2023-05-22T07:15:20.416Z,24.1
2023-05-22T07:20:22.132Z,24.2
2023-05-22T07:25:23.974Z,24.2
2023-05-22T07:30:25.823Z,24.3
2023-05-22T07:35:27.566Z,24.2
2023-05-22T07:40:29.520Z,24.3
2023-05-22T07:45:31.303Z,24.3
2023-05-22T07:50:33.018Z,24.3
2023-05-22T07:55:35.023Z,24.3
2023-05-22T08:00:36.819Z,24.3
2023-05-22T08:05:38.550Z,24.3
2023-05-22T08:15:45.213Z,24.3
2023-05-22T08:20:46.924Z,24.3
2023-05-22T08:25:48.662Z,24.3
2023-05-22T08:30:50.366Z,24.3
2023-05-22T08:35:52.095Z,24.3
2023-05-22T08:40:53.915Z,24.3
2023-05-22T08:45:55.674Z,24.4
2023-05-22T08:50:57.439Z,24.4
2023-05-22T08:55:59.321Z,24.4
2023-05-22T09:01:01.120Z,24.4
2023-05-22T09:06:03.032Z,24.4
2023-05-22T09:11:04.856Z,24.4
2023-05-22T09:16:06.535Z,24.4
2023-05-22T09:21:18.071Z,24.4
2023-05-22T09:26:27.242Z,24.4
2023-05-22T09:31:29.080Z,24.4
2023-05-22T09:36:30.922Z,24.4
2023-05-22T09:41:32.631Z,24.4
2023-05-22T09:46:34.566Z,24.5
2023-05-22T09:51:36.361Z,24.5
2023-05-22T09:56:39.515Z,24.5
2023-05-22T10:01:41.377Z,24.5
2023-05-22T10:06:43.092Z,24.5
2023-05-22T10:11:44.930Z,24.5
2023-05-22T10:16:46.670Z,24.5
2023-05-22T10:21:48.372Z,24.5
2023-05-22T10:26:50.214Z,24.5
2023-05-22T10:31:52.155Z,24.6
2023-05-22T10:36:56.008Z,24.6
2023-05-22T10:42:05.020Z,24.6
2023-05-22T10:47:06.785Z,24.6
2023-05-22T10:52:08.504Z,24.6
2023-05-22T10:57:10.530Z,24.6
2023-05-22T11:02:12.284Z,24.6
2023-05-22T11:07:14.002Z,24.6
2023-05-22T11:12:15.773Z,24.6
2023-05-22T11:17:17.563Z,24.6
2023-05-22T11:22:19.390Z,24.6
2023-05-22T11:27:21.224Z,24.6
2023-05-22T11:32:22.935Z,24.6
2023-05-22T11:37:24.699Z,24.6
2023-05-22T11:42:26.432Z,24.6
2023-05-22T11:47:28.201Z,24.6
2023-05-22T11:52:29.904Z,24.6
2023-05-22T11:57:31.736Z,24.7
2023-05-22T12:02:33.662Z,24.4
2023-05-22T12:07:35.463Z,24.3
2023-05-22T12:12:37.314Z,24.3
2023-05-22T12:17:39.170Z,24.4
2023-05-22T12:22:40.990Z,24.3
2023-05-22T12:27:42.837Z,24.4
2023-05-22T12:32:44.647Z,24.4
2023-05-22T12:37:46.405Z,24.4
2023-05-22T12:42:48.261Z,24.4
2023-05-22T12:47:50.122Z,24.4
2023-05-22T12:52:51.842Z,24.4
2023-05-22T12:57:53.774Z,24.4
2023-05-22T13:02:56.924Z,24.4
2023-05-22T13:07:58.724Z,24.4
2023-05-22T13:13:00.532Z,24.4
2023-05-22T13:18:02.354Z,24.4
2023-05-22T13:23:04.072Z,24.4
2023-05-22T13:28:06.061Z,24.4
2023-05-22T13:33:07.845Z,24.4
2023-05-22T13:38:09.582Z,24.4
2023-05-22T13:43:11.457Z,24.4
2023-05-22T13:48:13.231Z,24.4
2023-05-22T13:53:15.131Z,24.4
2023-05-22T13:58:16.963Z,24.4
2023-05-22T14:03:18.759Z,24.4
2023-05-22T14:08:20.949Z,24.4
2023-05-22T14:13:22.845Z,24.4
2023-05-22T14:18:24.842Z,24.4
2023-05-22T14:23:26.661Z,24.4
2023-05-22T14:28:29.554Z,24.4
2023-05-22T14:33:34.414Z,24.4
2023-05-22T14:38:36.184Z,24.4
2023-05-22T14:43:38.008Z,24.4
2023-05-22T14:48:39.771Z,24.4
2023-05-22T14:53:41.651Z,24.4
2023-05-22T14:58:43.462Z,24.5
2023-05-22T15:03:45.294Z,24.5
2023-05-22T15:08:47.021Z,24.4
2023-05-22T15:13:48.884Z,24.4
2023-05-22T15:18:50.624Z,24.4
2023-05-22T15:28:59.221Z,24.4
2023-05-22T15:34:01.139Z,24.4
2023-05-22T15:39:02.870Z,24.4
2023-05-22T15:44:04.834Z,24.4
2023-05-22T15:49:06.570Z,24.4
2023-05-22T15:54:08.302Z,24.5
2023-05-22T15:59:10.152Z,24.5
2023-05-22T16:04:12.101Z,24.5
2023-05-22T16:09:13.884Z,24.5
2023-05-22T16:14:15.719Z,24.5
2023-05-22T16:19:17.486Z,24.5
2023-05-22T16:24:19.360Z,24.5
2023-05-22T16:29:21.310Z,27.4
2023-05-22T16:34:27.132Z,31.1
2023-05-22T16:39:27.461Z,33.9
2023-05-22T16:44:28.064Z,36.6
2023-05-22T16:49:28.564Z,39.6
2023-05-22T16:54:29.106Z,41.2
2023-05-22T16:59:29.686Z,42
2023-05-22T17:04:30.571Z,43.1
2023-05-22T17:09:31.152Z,43.8
2023-05-22T17:14:31.732Z,44
2023-05-22T17:19:32.486Z,44.8
2023-05-22T17:24:33.462Z,44.9
2023-05-22T17:29:34.122Z,44.9
2023-05-22T17:34:34.742Z,44.9
2023-05-22T17:39:35.430Z,44.5
2023-05-22T17:44:35.906Z,44.2
2023-05-22T17:49:36.599Z,44.1
2023-05-22T17:54:37.203Z,44.1
2023-05-22T17:59:39.939Z,44
2023-05-22T18:04:41.107Z,43.9
2023-05-22T18:09:41.829Z,43.9
2023-05-22T18:14:42.462Z,43.9
2023-05-22T18:19:43.203Z,43.8
2023-05-22T18:24:44.328Z,43.7
2023-05-22T18:29:44.976Z,43.7
2023-05-22T18:34:45.591Z,43.7
2023-05-22T18:39:46.317Z,43.6
2023-05-22T18:44:48.932Z,43.6
2023-05-22T18:49:49.694Z,43.5
2023-05-22T18:54:50.402Z,43.4
2023-05-22T18:59:51.143Z,43.4
2023-05-22T19:04:51.796Z,43.3
2023-05-22T19:09:52.648Z,43.3
2023-05-22T19:14:53.240Z,43.2
2023-05-22T19:19:53.910Z,43.1
2023-05-22T19:24:54.662Z,43
2023-05-22T19:29:55.438Z,42.5
2023-05-22T19:34:56.011Z,42.2
2023-05-22T19:39:56.577Z,42
2023-05-22T19:44:57.257Z,41.9
2023-05-22T19:49:57.808Z,41.9
2023-05-22T19:54:58.308Z,41.7
2023-05-22T19:59:58.772Z,41.7
2023-05-22T20:04:59.373Z,41.6
2023-05-22T20:09:59.906Z,41.5
2023-05-22T20:15:00.355Z,41.4
2023-05-22T20:20:00.865Z,41.4
2023-05-22T20:25:01.469Z,41
2023-05-22T20:30:02.007Z,40.8
2023-05-22T20:35:02.519Z,40.7
2023-05-22T20:40:03.160Z,40.6
2023-05-22T20:45:03.813Z,40.6
2023-05-22T20:50:04.347Z,40.4
2023-05-22T20:55:04.872Z,40.4
2023-05-22T21:00:05.398Z,40.3
2023-05-22T21:05:06.028Z,40.2
2023-05-22T21:10:06.745Z,40.2
2023-05-22T21:15:07.246Z,40.1
2023-05-22T21:20:07.783Z,40
2023-05-22T21:25:08.387Z,39.9
2023-05-22T21:30:08.906Z,39.9
2023-05-22T21:35:09.404Z,39.8
2023-05-22T21:40:09.924Z,39.7
2023-05-22T21:45:10.510Z,39.7
2023-05-22T21:50:11.093Z,39.6
2023-05-22T21:55:11.538Z,39.6
2023-05-22T22:00:11.986Z,39.5
2023-05-22T22:05:12.588Z,39.4
2023-05-22T22:10:13.103Z,39.4
2023-05-22T22:15:13.599Z,39.3
2023-05-22T22:20:14.039Z,39.2
2023-05-22T22:25:14.612Z,39.2
2023-05-22T22:30:15.074Z,39.1
2023-05-22T22:35:15.509Z,39.1
2023-05-22T22:40:15.940Z,39
2023-05-22T22:45:16.527Z,38.9
2023-05-22T22:50:17.035Z,38.9
2023-05-22T22:55:17.505Z,38.8
2023-05-22T23:00:18.241Z,38.7
2023-05-22T23:05:18.980Z,38.7
2023-05-22T23:10:19.501Z,38.6
2023-05-22T23:15:19.973Z,38.6
2023-05-22T23:20:20.562Z,38.6
2023-05-22T23:25:21.056Z,38.5
2023-05-22T23:30:21.545Z,38.4
2023-05-22T23:35:22.061Z,38.4
2023-05-22T23:40:22.664Z,38.3
2023-05-22T23:45:23.233Z,38.2
2023-05-22T23:50:23.692Z,38.2
2023-05-22T23:55:24.145Z,38.2
